createdAt,value
2018-02-16T15:05:07.246Z,6.80
2018-02-16T15:07:36.743Z,6.50
2018-02-16T15:10:05.666Z,6.30
2018-02-16T15:12:35.149Z,5.97
2018-02-16T15:15:04.994Z,6.67
2018-02-16T15:17:36.056Z,5.83
2018-02-16T15:20:06.915Z,7.27
2018-02-16T15:22:36.490Z,6.20
2018-02-16T15:25:05.923Z,6.67
2018-02-16T15:27:35.338Z,6.60
2018-02-16T15:30:05.038Z,6.40
2018-02-16T15:32:34.805Z,7.80
2018-02-16T15:35:04.927Z,7.10
2018-02-16T15:37:34.440Z,7.40
2018-02-16T15:40:04.515Z,8.90
2018-02-16T15:42:34.875Z,7.90
2018-02-16T15:45:06.182Z,8.07
2018-02-16T15:47:35.922Z,7.30
2018-02-16T15:50:06.078Z,8.67
2018-02-16T15:52:35.576Z,8.17
2018-02-16T15:55:05.009Z,8.20
2018-02-16T15:57:35.448Z,7.77
2018-02-16T16:00:05.727Z,8.30
2018-02-16T16:02:35.241Z,7.23
2018-02-16T16:05:05.618Z,8.40
2018-02-16T16:07:35.417Z,7.87
2018-02-16T16:10:04.995Z,8.40
2018-02-16T16:12:34.818Z,8.40
2018-02-16T16:15:04.373Z,8.40
2018-02-16T16:17:33.833Z,9.07
2018-02-16T16:20:03.777Z,8.00
2018-02-16T16:22:33.201Z,8.67
2018-02-16T16:25:02.822Z,8.53
2018-02-16T16:27:32.569Z,8.20
2018-02-16T16:30:02.119Z,8.50
2018-02-16T16:32:31.598Z,8.97
2018-02-16T16:35:01.711Z,8.20
2018-02-16T16:37:31.204Z,8.53
2018-02-16T16:40:01.037Z,8.23
2018-02-16T16:42:30.756Z,8.63
2018-02-16T16:45:00.219Z,8.30
2018-02-16T16:47:29.815Z,8.57
2018-02-16T16:49:59.642Z,8.40
2018-02-16T16:52:31.104Z,8.37
2018-02-16T16:55:00.893Z,9.30
2018-02-16T16:57:30.341Z,9.18
2018-02-16T16:59:59.898Z,9.27
2018-02-16T17:02:29.721Z,10.40
2018-02-16T17:04:59.269Z,8.68
2018-02-16T17:07:29.625Z,9.52
2018-02-16T17:09:59.555Z,9.47
2018-02-16T17:12:29.097Z,8.82
2018-02-16T17:14:59.064Z,9.50
2018-02-16T17:17:29.961Z,8.77
2018-02-16T17:19:59.487Z,9.00
2018-02-16T17:22:28.968Z,8.15
2018-02-16T17:24:59.062Z,8.63
2018-02-16T17:27:28.471Z,9.07
2018-02-16T17:29:57.888Z,9.00
2018-02-16T17:32:27.946Z,9.70
2018-02-16T17:34:57.447Z,9.20
2018-02-16T17:37:27.220Z,10.85
2018-02-16T17:39:57.358Z,10.43
2018-02-16T17:42:27.454Z,9.45
2018-02-16T17:44:57.737Z,9.00
2018-02-16T17:47:27.907Z,9.43
2018-02-16T17:49:57.333Z,9.10
2018-02-16T17:52:26.748Z,9.55
2018-02-16T17:54:56.480Z,9.15
2018-02-16T17:57:25.926Z,9.65
2018-02-16T17:59:55.386Z,8.95
2018-02-16T18:02:25.316Z,8.95
2018-02-16T18:04:54.919Z,9.15
2018-02-16T18:07:24.408Z,9.63
2018-02-16T18:09:54.170Z,10.10
2018-02-16T18:12:23.713Z,9.77
2018-02-16T18:14:53.930Z,10.18
2018-02-16T18:17:23.880Z,10.75
2018-02-16T18:19:53.317Z,9.80
2018-02-16T18:22:22.810Z,9.88
2018-02-16T18:24:52.761Z,10.52
2018-02-16T18:27:22.419Z,10.02
2018-02-16T18:29:52.861Z,9.63
2018-02-16T18:32:22.642Z,10.13
2018-02-16T18:34:53.188Z,9.70
2018-02-16T18:37:22.720Z,9.77
2018-02-16T18:39:52.283Z,9.47
2018-02-16T18:42:21.910Z,9.02
2018-02-16T18:44:51.696Z,10.00
2018-02-16T18:47:21.133Z,9.35
2018-02-16T18:49:50.687Z,9.40
2018-02-16T18:52:20.667Z,9.10
2018-02-16T18:54:50.548Z,10.15
2018-02-16T18:57:20.617Z,9.23
2018-02-16T18:59:50.113Z,8.88
2018-02-16T19:02:19.618Z,8.57
2018-02-16T19:04:50.266Z,9.10
2018-02-16T19:07:20.567Z,9.88
2018-02-16T19:09:50.658Z,9.60
2018-02-16T19:12:20.367Z,10.00
2018-02-16T19:14:49.913Z,10.30
2018-02-16T19:17:19.668Z,10.32
2018-02-16T19:19:49.174Z,10.20
2018-02-16T19:22:18.884Z,10.23
2018-02-16T19:24:49.103Z,8.52
2018-02-16T19:27:18.656Z,8.90
2018-02-16T19:29:48.478Z,10.10
2018-02-16T19:32:17.975Z,10.43
2018-02-16T19:34:47.592Z,9.82
2018-02-16T19:39:51.276Z,9.73
2018-02-16T19:42:20.785Z,9.70
2018-02-16T19:44:50.363Z,11.80
2018-02-16T19:47:19.811Z,11.00
2018-02-16T19:49:49.353Z,10.80
2018-02-16T19:52:18.889Z,10.30
2018-02-16T19:54:48.698Z,11.07
2018-02-16T19:57:18.517Z,10.07
2018-02-16T19:59:48.605Z,9.93
2018-02-16T20:02:18.144Z,11.15
2018-02-16T20:04:48.357Z,11.43
2018-02-16T20:07:17.932Z,10.45
2018-02-16T20:09:47.551Z,10.45
2018-02-16T20:12:17.949Z,11.20
2018-02-16T20:14:47.652Z,10.20
2018-02-16T20:17:17.581Z,11.05
2018-02-16T20:19:47.308Z,10.95
2018-02-16T20:22:16.926Z,10.50
2018-02-16T20:24:46.561Z,10.82
2018-02-16T20:27:16.536Z,10.98
2018-02-16T20:29:46.095Z,11.05
2018-02-16T20:32:15.862Z,10.60
2018-02-16T20:34:45.914Z,10.25
2018-02-16T20:37:15.762Z,11.68
2018-02-16T20:39:46.223Z,11.93
2018-02-16T20:42:16.098Z,11.50
2018-02-16T20:44:45.565Z,10.90
2018-02-16T20:47:15.169Z,11.35
2018-02-16T20:49:44.862Z,12.13
2018-02-16T20:52:14.418Z,13.00
2018-02-16T20:54:44.122Z,14.40
2018-02-16T20:57:13.569Z,12.73
2018-02-16T20:59:43.056Z,12.85
2018-02-16T21:02:12.927Z,12.07
2018-02-16T21:04:42.388Z,11.77
2018-02-16T21:07:11.884Z,15.02
2018-02-16T21:09:41.602Z,13.23
2018-02-16T21:12:11.008Z,13.00
2018-02-16T21:14:41.373Z,13.45
2018-02-16T21:17:11.252Z,13.10
2018-02-16T21:19:41.732Z,13.50
2018-02-16T21:22:11.354Z,13.40
2018-02-16T21:24:41.008Z,12.48
2018-02-16T21:27:10.541Z,12.95
2018-02-16T21:29:40.145Z,12.80
2018-02-16T21:32:10.029Z,12.02
2018-02-16T21:34:40.200Z,13.07
2018-02-16T21:37:09.688Z,11.93
2018-02-16T21:39:39.294Z,12.73
2018-02-16T21:42:09.184Z,13.40
2018-02-16T21:44:39.193Z,12.40
2018-02-16T21:47:09.091Z,13.27
2018-02-16T21:49:38.536Z,12.00
2018-02-16T21:52:08.011Z,12.07
2018-02-16T21:54:38.070Z,13.60
2018-02-16T21:57:07.890Z,12.32
2018-02-16T21:59:37.472Z,12.57
2018-02-16T22:02:08.200Z,11.98
2018-02-16T22:04:37.771Z,12.37
2018-02-16T22:07:07.723Z,12.30
2018-02-16T22:09:37.746Z,11.88
2018-02-16T22:12:07.911Z,11.45
2018-02-16T22:14:37.969Z,11.50
2018-02-16T22:17:09.123Z,10.65
2018-02-16T22:19:39.196Z,11.30
2018-02-16T22:22:10.155Z,11.65
2018-02-16T22:24:40.115Z,12.68
2018-02-16T22:27:09.573Z,11.27
2018-02-16T22:29:39.061Z,10.85
2018-02-16T22:32:09.346Z,12.43
2018-02-16T22:34:39.179Z,11.63
2018-02-16T22:37:08.870Z,11.70
2018-02-16T22:39:38.332Z,11.20
2018-02-16T22:42:08.123Z,12.05
2018-02-16T22:44:37.887Z,11.35
2018-02-16T22:47:07.818Z,10.98
2018-02-16T22:49:37.318Z,11.30
2018-02-16T22:52:07.225Z,13.13
2018-02-16T22:54:36.910Z,10.82
2018-02-16T22:57:06.720Z,12.95
2018-02-16T22:59:36.979Z,10.77
2018-02-16T23:02:07.691Z,11.82
2018-02-16T23:04:37.442Z,11.15
2018-02-16T23:07:07.740Z,12.35
2018-02-16T23:09:37.494Z,11.48
2018-02-16T23:12:07.657Z,11.50
2018-02-16T23:14:38.222Z,11.43
2018-02-16T23:17:09.169Z,10.80
2018-02-16T23:19:38.684Z,11.45
2018-02-16T23:22:08.636Z,11.80
2018-02-16T23:24:38.635Z,11.12
2018-02-16T23:27:08.241Z,11.18
2018-02-16T23:29:38.180Z,10.70
2018-02-16T23:32:08.160Z,10.23
2018-02-16T23:34:37.731Z,10.55
2018-02-16T23:37:07.585Z,11.55
2018-02-16T23:39:37.059Z,11.38
2018-02-16T23:42:07.819Z,10.85
2018-02-16T23:44:38.185Z,11.75
2018-02-16T23:47:07.825Z,10.57
2018-02-16T23:49:37.460Z,10.68
2018-02-16T23:52:07.684Z,11.60
2018-02-16T23:54:37.219Z,9.80
2018-02-16T23:57:07.451Z,10.90
2018-02-16T23:59:37.262Z,10.57
